createdAt,value
2023-01-03T00:01:15.114Z,101341.66
2023-01-03T00:04:18.328Z,101344.28
2023-01-03T00:07:34.383Z,101342.63
2023-01-03T00:10:40.840Z,101345.34
2023-01-03T00:13:44.206Z,101344.41
2023-01-03T00:16:51.080Z,101347.97
2023-01-03T00:19:53.961Z,101331.31
2023-01-03T00:22:56.662Z,101334.75
2023-01-03T00:25:59.514Z,101341.91
2023-01-03T00:29:02.433Z,101348.81
2023-01-03T00:32:05.785Z,101347.12
2023-01-03T00:35:09.223Z,101350.81
2023-01-03T00:38:12.013Z,101356.19
2023-01-03T00:41:17.093Z,101358.22
2023-01-03T00:44:20.402Z,101364.28
2023-01-03T00:47:23.179Z,101362.63
2023-01-03T00:50:25.971Z,101376.41
2023-01-03T00:53:28.945Z,101382.72
2023-01-03T00:56:37.389Z,101375.81
2023-01-03T00:59:40.248Z,101378.31
2023-01-03T01:02:43.308Z,101378.31
2023-01-03T01:05:46.329Z,101387.97
2023-01-03T01:08:55.377Z,101391.41
2023-01-03T01:11:58.046Z,101380.00
2023-01-03T01:15:00.934Z,101387.84
2023-01-03T01:18:03.636Z,101388.78
2023-01-03T01:21:08.072Z,101395.69
2023-01-03T01:24:17.429Z,101400.81
2023-01-03T01:27:20.748Z,101404.38
2023-01-03T01:30:24.812Z,101396.41
2023-01-03T01:33:28.217Z,101391.19
2023-01-03T01:36:34.015Z,101400.69
2023-01-03T01:39:37.015Z,101391.06
2023-01-03T01:42:58.133Z,101400.69
2023-01-03T01:46:21.960Z,101392.84
2023-01-03T01:49:26.423Z,101389.28
2023-01-03T01:52:31.164Z,101388.31
2023-01-03T01:55:38.866Z,101387.50
2023-01-03T01:58:44.464Z,101388.31
2023-01-03T02:01:48.592Z,101381.31
2023-01-03T02:04:53.822Z,101383.81
2023-01-03T02:07:57.052Z,101386.53
2023-01-03T02:11:09.258Z,101384.75
2023-01-03T02:14:17.986Z,101384.75
2023-01-03T02:17:27.231Z,101388.22
2023-01-03T02:20:58.580Z,101389.16
2023-01-03T02:24:14.216Z,101391.78
2023-01-03T02:27:54.508Z,101383.09
2023-01-03T02:31:13.384Z,101384.75
2023-01-03T02:34:27.751Z,101394.41
2023-01-03T02:37:39.658Z,101392.63
2023-01-03T02:41:08.694Z,101400.47
2023-01-03T02:44:27.398Z,101404.88
2023-01-03T02:47:36.061Z,101404.03
2023-01-03T02:50:49.995Z,101418.91
2023-01-03T02:53:52.908Z,101422.59
2023-01-03T02:57:06.387Z,101433.78
2023-01-03T03:00:21.663Z,101435.56
2023-01-03T03:03:27.182Z,101436.41
2023-01-03T03:06:35.041Z,101434.75
2023-01-03T03:09:57.875Z,101440.09
2023-01-03T03:13:53.678Z,101443.78
2023-01-03T03:17:00.981Z,101440.44
2023-01-03T03:20:31.994Z,101444.97
2023-01-03T03:23:55.698Z,101437.22
2023-01-03T03:26:59.467Z,101448.66
2023-01-03T03:30:05.169Z,101440.19
2023-01-03T03:33:08.941Z,101434.84
2023-01-03T03:36:33.501Z,101434.13
2023-01-03T03:39:55.216Z,101442.81
2023-01-03T03:43:25.479Z,101451.59
2023-01-03T03:46:34.007Z,101450.66
2023-01-03T03:49:38.599Z,101449.09
2023-01-03T03:52:45.399Z,101461.25
2023-01-03T03:55:51.807Z,101471.84
2023-01-03T03:58:59.071Z,101479.69
2023-01-03T04:02:04.044Z,101482.31
2023-01-03T04:05:10.225Z,101487.53
2023-01-03T04:08:13.054Z,101495.41
2023-01-03T04:11:15.840Z,101496.34
2023-01-03T04:14:18.919Z,101508.47
2023-01-03T04:17:21.715Z,101510.25
2023-01-03T04:20:24.648Z,101504.09
2023-01-03T04:23:27.592Z,101513.72
2023-01-03T04:26:30.338Z,101508.00
2023-01-03T04:29:38.993Z,101504.94
2023-01-03T04:32:46.619Z,101502.78
2023-01-03T04:35:49.346Z,101519.66
2023-01-03T04:38:52.221Z,101509.53
2023-01-03T04:41:55.066Z,101521.16
2023-01-03T04:44:57.825Z,101522.94
2023-01-03T04:48:00.521Z,101518.03
2023-01-03T04:51:04.028Z,101514.69
2023-01-03T04:54:07.051Z,101535.84
2023-01-03T04:57:10.851Z,101539.31
2023-01-03T05:00:14.210Z,101541.91
2023-01-03T05:03:20.073Z,101532.28
2023-01-03T05:06:27.500Z,101533.34
2023-01-03T05:09:30.460Z,101535.03
2023-01-03T05:12:33.254Z,101536.06
2023-01-03T05:15:38.713Z,101535.25
2023-01-03T05:18:42.741Z,101529.06
2023-01-03T05:22:03.933Z,101547.47
2023-01-03T05:25:25.560Z,101547.59
2023-01-03T05:28:30.558Z,101546.66
2023-01-03T05:31:33.442Z,101544.97
2023-01-03T05:34:36.277Z,101546.66
2023-01-03T05:37:38.957Z,101551.16
2023-01-03T05:40:48.580Z,101556.38
2023-01-03T05:43:51.467Z,101556.59
2023-01-03T05:46:54.166Z,101569.78
2023-01-03T05:49:56.921Z,101556.81
2023-01-03T05:52:59.729Z,101563.84
2023-01-03T05:56:06.757Z,101563.09
2023-01-03T05:59:10.139Z,101568.44
2023-01-03T06:02:12.991Z,101574.62
2023-01-03T06:05:16.038Z,101577.31
2023-01-03T06:08:18.838Z,101572.91
2023-01-03T06:11:22.515Z,101584.44
2023-01-03T06:14:25.287Z,101581.81
2023-01-03T06:17:46.461Z,101580.03
2023-01-03T06:20:50.990Z,101581.81
2023-01-03T06:23:53.946Z,101578.34
2023-01-03T06:26:56.757Z,101580.13
2023-01-03T06:29:59.908Z,101574.19
2023-01-03T06:33:02.665Z,101581.28
2023-01-03T06:36:10.091Z,101578.91
2023-01-03T06:39:12.829Z,101592.69
2023-01-03T06:42:34.070Z,101593.63
2023-01-03T06:45:55.354Z,101598.88
2023-01-03T06:49:17.545Z,101602.44
2023-01-03T06:52:38.741Z,101597.00
2023-01-03T06:55:43.204Z,101599.59
2023-01-03T06:58:45.972Z,101605.78
2023-01-03T07:01:49.963Z,101610.50
2023-01-03T07:04:52.971Z,101612.06
2023-01-03T07:07:55.789Z,101604.22
2023-01-03T07:10:59.022Z,101615.50
2023-01-03T07:14:03.599Z,101623.47
2023-01-03T07:17:06.520Z,101621.88
2023-01-03T07:20:09.723Z,101628.56
2023-01-03T07:23:13.998Z,101631.41
2023-01-03T07:26:16.878Z,101633.19
2023-01-03T07:29:19.683Z,101636.84
2023-01-03T07:32:22.439Z,101643.22
2023-01-03T07:35:25.196Z,101653.91
2023-01-03T07:38:28.313Z,101664.25
2023-01-03T07:41:49.928Z,101657.66
2023-01-03T07:44:52.757Z,101655.97
2023-01-03T07:47:55.904Z,101652.62
2023-01-03T07:50:59.401Z,101667.37
2023-01-03T07:54:02.866Z,101671.56
2023-01-03T07:57:05.628Z,101676.16
2023-01-03T08:00:10.292Z,101689.97
2023-01-03T08:03:14.675Z,101691.22
2023-01-03T08:06:19.907Z,101688.41
2023-01-03T08:09:41.215Z,101692.78
2023-01-03T08:13:02.543Z,101694.47
2023-01-03T08:16:06.090Z,101691.00
2023-01-03T08:19:09.050Z,101697.06
2023-01-03T08:22:11.942Z,101706.59
2023-01-03T08:25:14.713Z,101700.44
2023-01-03T08:28:17.717Z,101706.59
2023-01-03T08:31:26.395Z,101706.19
2023-01-03T08:34:32.180Z,101710.56
2023-01-03T08:37:35.356Z,101707.34
2023-01-03T08:45:23.334Z,101707.25
2023-01-03T08:48:26.321Z,101707.87
2023-01-03T08:51:30.306Z,101710.06
2023-01-03T08:54:33.304Z,101718.53
2023-01-03T08:57:36.168Z,101710.50
2023-01-03T09:00:40.109Z,101713.03
2023-01-03T09:03:43.538Z,101721.50
2023-01-03T09:06:46.916Z,101719.41
2023-01-03T09:09:51.078Z,101722.97
2023-01-03T09:12:54.059Z,101724.75
2023-01-03T09:16:04.904Z,101719.41
2023-01-03T09:19:08.170Z,101719.00
2023-01-03T09:22:11.234Z,101708.72
2023-01-03T09:25:15.733Z,101712.09
2023-01-03T09:28:18.882Z,101716.47
2023-01-03T09:31:23.954Z,101713.12
2023-01-03T09:34:27.481Z,101719.19
2023-01-03T09:37:30.487Z,101719.50
2023-01-03T09:40:40.976Z,101714.06
2023-01-03T09:43:47.046Z,101711.84
2023-01-03T09:46:49.970Z,101716.88
2023-01-03T09:50:27.656Z,101715.19
2023-01-03T09:53:46.534Z,101708.81
2023-01-03T09:57:08.366Z,101714.47
2023-01-03T10:00:50.119Z,101707.53
2023-01-03T10:04:16.153Z,101700.09
2023-01-03T10:07:37.613Z,101706.59
2023-01-03T10:10:53.014Z,101700.75
2023-01-03T10:14:14.803Z,101683.59
2023-01-03T10:18:00.630Z,101688.00
2023-01-03T10:21:34.010Z,101682.28
2023-01-03T10:24:46.305Z,101678.72
2023-01-03T10:28:01.741Z,101673.06
2023-01-03T10:31:07.980Z,101678.66
2023-01-03T10:34:12.993Z,101673.06
2023-01-03T10:37:19.441Z,101673.44
2023-01-03T10:40:42.073Z,101668.91
2023-01-03T10:43:46.422Z,101665.25
2023-01-03T10:46:51.592Z,101660.34
2023-01-03T10:50:01.580Z,101659.81
2023-01-03T10:53:07.733Z,101659.22
2023-01-03T10:56:15.301Z,101655.25
2023-01-03T10:59:26.785Z,101649.78
2023-01-03T11:02:29.970Z,101651.59
2023-01-03T11:05:33.682Z,101644.63
2023-01-03T11:08:44.841Z,101648.03
2023-01-03T11:11:55.110Z,101645.44
2023-01-03T11:14:58.531Z,101644.69
2023-01-03T11:18:06.488Z,101643.66
2023-01-03T11:21:23.607Z,101636.22
2023-01-03T11:24:48.215Z,101653.28
2023-01-03T11:28:02.985Z,101646.53
2023-01-03T11:31:28.929Z,101649.09
2023-01-03T11:35:21.299Z,101645.62
2023-01-03T11:38:22.078Z,101643.22
2023-01-03T11:41:56.256Z,101648.59
2023-01-03T11:45:22.830Z,101641.50
2023-01-03T11:48:47.416Z,101636.66
2023-01-03T11:52:20.791Z,101631.84
2023-01-03T11:55:38.953Z,101626.75
2023-01-03T11:58:58.543Z,101625.66
2023-01-03T12:02:36.766Z,101625.53
2023-01-03T12:06:29.115Z,101615.28
2023-01-03T12:09:48.353Z,101622.47
2023-01-03T12:13:29.824Z,101620.91
2023-01-03T12:16:39.073Z,101622.84
2023-01-03T12:19:45.703Z,101615.66
2023-01-03T12:23:01.963Z,101628.81
2023-01-03T12:26:08.890Z,101627.03
2023-01-03T12:29:20.317Z,101629.53
2023-01-03T12:32:52.885Z,101631.19
2023-01-03T12:36:18.061Z,101626.97
2023-01-03T12:39:49.715Z,101616.72
2023-01-03T12:43:22.435Z,101615.63
2023-01-03T12:46:31.571Z,101611.97
2023-01-03T12:49:50.148Z,101619.16
2023-01-03T12:53:24.688Z,101618.06
2023-01-03T12:56:30.822Z,101618.72
2023-01-03T13:00:16.989Z,101611.94
2023-01-03T13:03:30.199Z,101609.50
2023-01-03T13:06:40.541Z,101612.66
2023-01-03T13:10:02.923Z,101611.62
2023-01-03T13:13:21.569Z,101610.22
2023-01-03T13:16:52.939Z,101604.97
2023-01-03T13:20:37.670Z,101604.50
2023-01-03T13:24:04.723Z,101614.56
2023-01-03T13:27:30.580Z,101611.09
2023-01-03T13:30:43.999Z,101605.12
2023-01-03T13:33:57.811Z,101603.72
2023-01-03T13:37:10.645Z,101607.44
2023-01-03T13:40:14.216Z,101601.62
2023-01-03T13:43:23.059Z,101602.84
2023-01-03T13:46:29.472Z,101604.75
2023-01-03T13:49:32.465Z,101602.25
2023-01-03T13:53:00.288Z,101601.56
2023-01-03T13:56:15.482Z,101608.00
2023-01-03T13:59:42.849Z,101604.53
2023-01-03T14:03:04.192Z,101603.13
2023-01-03T14:06:18.779Z,101618.19
2023-01-03T14:09:24.833Z,101620.13
2023-01-03T14:12:55.330Z,101620.94
2023-01-03T14:16:17.373Z,101616.78
2023-01-03T14:19:26.699Z,101627.16
2023-01-03T14:22:42.289Z,101631.72
2023-01-03T14:25:45.793Z,101631.72
2023-01-03T14:28:52.085Z,101632.56
2023-01-03T14:31:56.484Z,101629.09
2023-01-03T14:35:03.081Z,101639.47
2023-01-03T14:38:07.546Z,101636.16
2023-01-03T14:41:29.562Z,101646.41
2023-01-03T14:44:38.967Z,101639.34
2023-01-03T14:47:46.202Z,101643.78
2023-01-03T14:50:54.840Z,101645.69
2023-01-03T14:53:59.659Z,101651.91
2023-01-03T14:57:02.971Z,101659.09
2023-01-03T15:00:12.028Z,101655.38
2023-01-03T15:03:17.154Z,101657.31
2023-01-03T15:06:24.159Z,101655.75
2023-01-03T15:09:27.277Z,101651.59
2023-01-03T15:12:31.891Z,101653.13
2023-01-03T15:15:39.318Z,101656.59
2023-01-03T15:18:44.447Z,101663.91
2023-01-03T15:21:47.331Z,101656.38
2023-01-03T15:24:55.253Z,101658.31
2023-01-03T15:28:21.108Z,101668.63
2023-01-03T15:31:24.275Z,101685.22
2023-01-03T15:34:38.999Z,101678.16
2023-01-03T15:37:42.583Z,101684.50
2023-01-03T15:40:50.839Z,101684.63
2023-01-03T15:43:57.568Z,101682.50
2023-01-03T15:47:07.693Z,101688.09
2023-01-03T15:50:14.589Z,101696.94
2023-01-03T15:53:44.621Z,101695.78
2023-01-03T15:57:00.695Z,101702.09
2023-01-03T16:00:06.525Z,101711.19
2023-01-03T16:03:18.721Z,101712.38
2023-01-03T16:06:21.874Z,101708.31
2023-01-03T16:09:32.665Z,101716.44
2023-01-03T16:12:48.108Z,101721.22
2023-01-03T16:16:15.726Z,101714.63
2023-01-03T16:19:26.428Z,101710.56
2023-01-03T16:22:35.082Z,101720.47
2023-01-03T16:25:38.771Z,101723.22
2023-01-03T16:28:41.797Z,101724.41
2023-01-03T16:31:45.466Z,101728.09
2023-01-03T16:34:48.607Z,101732.75
2023-01-03T16:37:54.390Z,101722.47
2023-01-03T16:40:58.530Z,101726.19
2023-01-03T16:44:01.378Z,101733.34
2023-01-03T16:47:10.372Z,101730.00
2023-01-03T16:50:18.900Z,101739.66
2023-01-03T16:53:45.137Z,101742.37
2023-01-03T16:56:51.930Z,101742.75
2023-01-03T16:59:55.419Z,101748.09
2023-01-03T17:03:01.840Z,101742.97
2023-01-03T17:06:05.073Z,101749.91
2023-01-03T17:09:17.452Z,101750.84
2023-01-03T17:12:22.769Z,101749.19
2023-01-03T17:15:25.783Z,101764.19
2023-01-03T17:18:38.995Z,101756.44
2023-01-03T17:21:45.318Z,101769.56
2023-01-03T17:24:52.758Z,101767.12
2023-01-03T17:27:57.622Z,101770.09
2023-01-03T17:31:01.007Z,101758.16
2023-01-03T17:34:16.658Z,101754.09
2023-01-03T17:37:20.966Z,101764.59
2023-01-03T17:40:33.152Z,101765.31
2023-01-03T17:43:36.732Z,101769.13
2023-01-03T17:47:01.133Z,101774.25
2023-01-03T17:50:04.341Z,101777.81
2023-01-03T17:53:10.839Z,101776.37
2023-01-03T17:56:18.248Z,101777.22
2023-01-03T17:59:22.528Z,101784.12
2023-01-03T18:02:30.393Z,101787.44
2023-01-03T18:05:34.958Z,101786.59
2023-01-03T18:08:41.499Z,101792.44
2023-01-03T18:11:44.625Z,101791.50
2023-01-03T18:14:49.392Z,101794.97
2023-01-03T18:17:53.306Z,101794.12
2023-01-03T18:20:57.605Z,101795.91
2023-01-03T18:24:02.323Z,101793.28
2023-01-03T18:27:05.094Z,101791.62
2023-01-03T18:30:15.243Z,101801.50
2023-01-03T18:33:21.223Z,101795.25
2023-01-03T18:36:27.610Z,101797.75
2023-01-03T18:39:30.726Z,101795.25
2023-01-03T18:42:53.302Z,101804.28
2023-01-03T18:45:56.228Z,101808.28
2023-01-03T18:48:59.385Z,101799.91
2023-01-03T18:52:02.610Z,101811.84
2023-01-03T18:55:07.833Z,101815.41
2023-01-03T18:58:29.828Z,101813.50
2023-01-03T19:01:34.798Z,101817.19
2023-01-03T19:04:38.068Z,101812.06
2023-01-03T19:07:45.666Z,101817.09
2023-01-03T19:10:52.620Z,101817.09
2023-01-03T19:13:55.913Z,101819.69
2023-01-03T19:17:02.264Z,101817.41
2023-01-03T19:20:06.566Z,101826.56
2023-01-03T19:23:10.483Z,101824.03
2023-01-03T19:26:26.315Z,101835.59
2023-01-03T19:29:37.268Z,101835.25
2023-01-03T19:32:40.674Z,101832.97
2023-01-03T19:35:44.266Z,101838.00
2023-01-03T19:38:47.277Z,101835.59
2023-01-03T19:42:10.596Z,101833.69
2023-01-03T19:45:22.288Z,101837.25
2023-01-03T19:48:26.741Z,101839.03
2023-01-03T19:51:29.912Z,101843.22
2023-01-03T19:54:33.033Z,101835.25
2023-01-03T19:57:35.904Z,101835.25
2023-01-03T20:00:43.560Z,101834.41
2023-01-03T20:03:48.455Z,101835.59
2023-01-03T20:06:51.568Z,101834.34
2023-01-03T20:09:54.577Z,101831.91
2023-01-03T20:13:00.743Z,101836.84
2023-01-03T20:16:04.030Z,101836.13
2023-01-03T20:19:09.662Z,101833.22
2023-01-03T20:22:37.356Z,101833.59
2023-01-03T20:25:37.365Z,101836.03
2023-01-03T20:28:40.716Z,101834.56
2023-01-03T20:31:44.655Z,101832.25
2023-01-03T20:34:48.336Z,101830.59
2023-01-03T20:37:54.263Z,101834.16
2023-01-03T20:41:00.657Z,101843.28
2023-01-03T20:44:10.249Z,101834.78
2023-01-03T20:47:13.801Z,101834.38
2023-01-03T20:50:21.136Z,101836.03
2023-01-03T20:53:27.995Z,101835.09
2023-01-03T20:56:33.537Z,101823.78
2023-01-03T20:59:36.608Z,101813.44
2023-01-03T21:02:39.989Z,101829.53
2023-01-03T21:05:43.102Z,101836.00
2023-01-03T21:08:54.987Z,101838.00
2023-01-03T21:11:58.145Z,101838.62
2023-01-03T21:15:01.385Z,101846.47
2023-01-03T21:18:05.636Z,101837.16
2023-01-03T21:21:14.694Z,101838.31
2023-01-03T21:24:19.734Z,101839.34
2023-01-03T21:27:25.435Z,101854.13
2023-01-03T21:30:31.327Z,101852.34
2023-01-03T21:33:34.232Z,101852.12
2023-01-03T21:36:37.177Z,101841.94
2023-01-03T21:39:40.624Z,101846.16
2023-01-03T21:43:03.586Z,101848.44
2023-01-03T21:46:07.970Z,101852.41
2023-01-03T21:49:11.017Z,101848.59
2023-01-03T21:52:14.438Z,101851.06
2023-01-03T21:55:18.217Z,101849.22
2023-01-03T21:58:22.287Z,101852.59
2023-01-03T22:01:26.507Z,101851.00
2023-01-03T22:04:33.167Z,101850.94
2023-01-03T22:07:36.601Z,101853.47
2023-01-03T22:10:42.497Z,101853.72
2023-01-03T22:13:47.205Z,101854.03
2023-01-03T22:16:53.337Z,101859.72
2023-01-03T22:19:58.337Z,101862.59
2023-01-03T22:23:01.347Z,101864.75
2023-01-03T22:26:11.554Z,101864.09
2023-01-03T22:29:14.696Z,101858.69
2023-01-03T22:32:17.791Z,101874.25
2023-01-03T22:35:20.707Z,101875.66
2023-01-03T22:38:25.498Z,101866.91
2023-01-03T22:41:29.216Z,101873.97
2023-01-03T22:44:32.078Z,101872.94
2023-01-03T22:47:38.317Z,101873.03
2023-01-03T22:50:42.896Z,101865.75
2023-01-03T22:53:50.685Z,101878.25
2023-01-03T22:56:56.292Z,101866.53
2023-01-03T22:59:59.798Z,101867.94
2023-01-03T23:03:03.125Z,101873.69
2023-01-03T23:06:08.102Z,101869.41
2023-01-03T23:09:13.813Z,101865.22
2023-01-03T23:12:38.234Z,101862.41
2023-01-03T23:15:41.080Z,101865.13
2023-01-03T23:18:43.880Z,101858.88
2023-01-03T23:21:49.239Z,101857.69
2023-01-03T23:24:52.204Z,101864.56
2023-01-03T23:27:54.994Z,101862.06
2023-01-03T23:31:03.683Z,101868.56
2023-01-03T23:34:08.666Z,101868.84
2023-01-03T23:37:11.578Z,101874.63
2023-01-03T23:40:15.216Z,101868.94
2023-01-03T23:43:21.599Z,101864.78
2023-01-03T23:46:27.811Z,101864.31
2023-01-03T23:49:30.732Z,101865.97
2023-01-03T23:52:34.757Z,101860.44
2023-01-03T23:55:40.773Z,101860.19
2023-01-03T23:58:44.708Z,101863.69
